sensor_id;sensor_type;location;lat;lon;timestamp;P1;durP1;ratioP1;P2;durP2;ratioP2
30505;SDS011;17292;51.600;4.994;2024-02-26T00:01:57;1.30;;;1.30;;
30505;SDS011;17292;51.600;4.994;2024-02-26T00:04:23;1.95;;;1.60;;
30505;SDS011;17292;51.600;4.994;2024-02-26T00:06:49;1.73;;;1.42;;
30505;SDS011;17292;51.600;4.994;2024-02-26T00:09:19;1.60;;;1.50;;
30505;SDS011;17292;51.600;4.994;2024-02-26T00:11:45;1.48;;;1.38;;
30505;SDS011;17292;51.600;4.994;2024-02-26T00:14:11;1.40;;;1.30;;
30505;SDS011;17292;51.600;4.994;2024-02-26T00:16:39;1.75;;;1.30;;
30505;SDS011;17292;51.600;4.994;2024-02-26T00:19:06;1.50;;;1.40;;
30505;SDS011;17292;51.600;4.994;2024-02-26T00:21:32;1.33;;;1.23;;
30505;SDS011;17292;51.600;4.994;2024-02-26T00:23:59;1.30;;;1.20;;
30505;SDS011;17292;51.600;4.994;2024-02-26T00:26:25;1.30;;;1.20;;
30505;SDS011;17292;51.600;4.994;2024-02-26T00:28:51;1.70;;;1.40;;
30505;SDS011;17292;51.600;4.994;2024-02-26T00:31:17;1.30;;;1.20;;
30505;SDS011;17292;51.600;4.994;2024-02-26T00:33:43;1.60;;;1.50;;
30505;SDS011;17292;51.600;4.994;2024-02-26T00:36:09;1.05;;;1.05;;
30505;SDS011;17292;51.600;4.994;2024-02-26T00:38:35;1.55;;;1.20;;
30505;SDS011;17292;51.600;4.994;2024-02-26T00:41:02;1.27;;;1.15;;
30505;SDS011;17292;51.600;4.994;2024-02-26T00:43:28;1.25;;;1.13;;
30505;SDS011;17292;51.600;4.994;2024-02-26T00:45:54;1.42;;;1.33;;
30505;SDS011;17292;51.600;4.994;2024-02-26T00:48:20;1.00;;;1.00;;
30505;SDS011;17292;51.600;4.994;2024-02-26T00:50:46;1.30;;;1.20;;
30505;SDS011;17292;51.600;4.994;2024-02-26T00:53:12;2.22;;;1.15;;
30505;SDS011;17292;51.600;4.994;2024-02-26T00:55:38;1.40;;;1.30;;
30505;SDS011;17292;51.600;4.994;2024-02-26T00:58:04;1.38;;;1.27;;
30505;SDS011;17292;51.600;4.994;2024-02-26T01:00:31;1.20;;;1.10;;
30505;SDS011;17292;51.600;4.994;2024-02-26T01:02:57;1.20;;;1.17;;
30505;SDS011;17292;51.600;4.994;2024-02-26T01:05:24;1.38;;;1.27;;
30505;SDS011;17292;51.600;4.994;2024-02-26T01:07:50;1.48;;;1.27;;
30505;SDS011;17292;51.600;4.994;2024-02-26T01:10:16;1.45;;;1.35;;
30505;SDS011;17292;51.600;4.994;2024-02-26T01:12:42;1.55;;;1.40;;
30505;SDS011;17292;51.600;4.994;2024-02-26T01:15:09;1.25;;;1.10;;
30505;SDS011;17292;51.600;4.994;2024-02-26T01:17:35;1.45;;;1.35;;
30505;SDS011;17292;51.600;4.994;2024-02-26T01:20:01;4.05;;;1.35;;
30505;SDS011;17292;51.600;4.994;2024-02-26T01:22:27;1.38;;;1.27;;
30505;SDS011;17292;51.600;4.994;2024-02-26T01:24:53;1.42;;;1.33;;
30505;SDS011;17292;51.600;4.994;2024-02-26T01:27:21;1.50;;;1.40;;
30505;SDS011;17292;51.600;4.994;2024-02-26T01:29:51;1.38;;;1.27;;
30505;SDS011;17292;51.600;4.994;2024-02-26T01:32:18;1.42;;;1.20;;
30505;SDS011;17292;51.600;4.994;2024-02-26T01:34:44;1.48;;;1.38;;
30505;SDS011;17292;51.600;4.994;2024-02-26T01:37:11;1.35;;;1.25;;
30505;SDS011;17292;51.600;4.994;2024-02-26T01:39:37;1.20;;;1.20;;
30505;SDS011;17292;51.600;4.994;2024-02-26T01:42:03;1.60;;;1.50;;
30505;SDS011;17292;51.600;4.994;2024-02-26T01:44:29;1.40;;;1.30;;
30505;SDS011;17292;51.600;4.994;2024-02-26T01:46:55;1.33;;;1.23;;
30505;SDS011;17292;51.600;4.994;2024-02-26T01:49:21;1.50;;;1.40;;
30505;SDS011;17292;51.600;4.994;2024-02-26T01:51:47;1.50;;;1.40;;
30505;SDS011;17292;51.600;4.994;2024-02-26T01:54:14;1.58;;;1.48;;
30505;SDS011;17292;51.600;4.994;2024-02-26T01:56:40;1.42;;;1.33;;
30505;SDS011;17292;51.600;4.994;2024-02-26T01:59:07;1.38;;;1.27;;
30505;SDS011;17292;51.600;4.994;2024-02-26T02:01:33;2.08;;;1.40;;
30505;SDS011;17292;51.600;4.994;2024-02-26T02:04:00;1.40;;;1.27;;
30505;SDS011;17292;51.600;4.994;2024-02-26T02:06:26;1.15;;;1.15;;
30505;SDS011;17292;51.600;4.994;2024-02-26T02:08:56;1.33;;;1.20;;
30505;SDS011;17292;51.600;4.994;2024-02-26T02:11:22;1.15;;;1.15;;
30505;SDS011;17292;51.600;4.994;2024-02-26T02:13:48;1.60;;;1.10;;
30505;SDS011;17292;51.600;4.994;2024-02-26T02:16:14;1.10;;;1.10;;
30505;SDS011;17292;51.600;4.994;2024-02-26T02:18:41;1.38;;;1.27;;
30505;SDS011;17292;51.600;4.994;2024-02-26T02:21:07;1.30;;;1.20;;
30505;SDS011;17292;51.600;4.994;2024-02-26T02:23:33;1.30;;;1.20;;
30505;SDS011;17292;51.600;4.994;2024-02-26T02:25:59;1.20;;;1.20;;
30505;SDS011;17292;51.600;4.994;2024-02-26T02:28:25;1.33;;;1.23;;
30505;SDS011;17292;51.600;4.994;2024-02-26T02:30:52;1.13;;;1.13;;
30505;SDS011;17292;51.600;4.994;2024-02-26T02:33:18;1.17;;;1.10;;
30505;SDS011;17292;51.600;4.994;2024-02-26T02:35:44;1.85;;;1.20;;
30505;SDS011;17292;51.600;4.994;2024-02-26T02:38:11;1.08;;;1.05;;
30505;SDS011;17292;51.600;4.994;2024-02-26T02:40:37;1.98;;;1.45;;
30505;SDS011;17292;51.600;4.994;2024-02-26T02:43:03;1.38;;;1.27;;
30505;SDS011;17292;51.600;4.994;2024-02-26T02:45:29;1.10;;;1.08;;
30505;SDS011;17292;51.600;4.994;2024-02-26T02:47:56;1.40;;;1.30;;
30505;SDS011;17292;51.600;4.994;2024-02-26T02:50:22;1.45;;;1.20;;
30505;SDS011;17292;51.600;4.994;2024-02-26T02:52:48;1.27;;;1.25;;
30505;SDS011;17292;51.600;4.994;2024-02-26T02:55:15;1.05;;;0.98;;
30505;SDS011;17292;51.600;4.994;2024-02-26T02:57:41;1.05;;;1.05;;
30505;SDS011;17292;51.600;4.994;2024-02-26T03:00:11;1.20;;;1.10;;
30505;SDS011;17292;51.600;4.994;2024-02-26T03:02:37;1.88;;;1.40;;
30505;SDS011;17292;51.600;4.994;2024-02-26T03:05:03;1.40;;;1.30;;
30505;SDS011;17292;51.600;4.994;2024-02-26T03:07:30;1.25;;;1.25;;
30505;SDS011;17292;51.600;4.994;2024-02-26T03:09:56;1.40;;;1.30;;
30505;SDS011;17292;51.600;4.994;2024-02-26T03:12:22;1.15;;;1.13;;
30505;SDS011;17292;51.600;4.994;2024-02-26T03:14:48;1.33;;;1.23;;
30505;SDS011;17292;51.600;4.994;2024-02-26T03:17:14;1.10;;;1.10;;
30505;SDS011;17292;51.600;4.994;2024-02-26T03:19:41;1.30;;;1.20;;
30505;SDS011;17292;51.600;4.994;2024-02-26T03:22:07;1.20;;;1.17;;
30505;SDS011;17292;51.600;4.994;2024-02-26T03:24:33;1.90;;;1.30;;
30505;SDS011;17292;51.600;4.994;2024-02-26T03:26:59;1.52;;;1.42;;
30505;SDS011;17292;51.600;4.994;2024-02-26T03:29:25;1.17;;;1.17;;
30505;SDS011;17292;51.600;4.994;2024-02-26T03:31:51;1.27;;;1.17;;
30505;SDS011;17292;51.600;4.994;2024-02-26T03:34:17;1.00;;;1.00;;
30505;SDS011;17292;51.600;4.994;2024-02-26T03:36:44;1.33;;;1.23;;
30505;SDS011;17292;51.600;4.994;2024-02-26T03:39:11;1.30;;;1.20;;
30505;SDS011;17292;51.600;4.994;2024-02-26T03:41:37;1.20;;;1.10;;
30505;SDS011;17292;51.600;4.994;2024-02-26T03:44:03;1.25;;;1.20;;
30505;SDS011;17292;51.600;4.994;2024-02-26T03:46:29;1.55;;;1.25;;
30505;SDS011;17292;51.600;4.994;2024-02-26T03:48:55;1.45;;;1.35;;
30505;SDS011;17292;51.600;4.994;2024-02-26T03:51:21;1.50;;;1.35;;
30505;SDS011;17292;51.600;4.994;2024-02-26T03:53:48;1.42;;;1.27;;
30505;SDS011;17292;51.600;4.994;2024-02-26T03:56:14;1.40;;;1.30;;
30505;SDS011;17292;51.600;4.994;2024-02-26T03:58:40;1.60;;;1.50;;
30505;SDS011;17292;51.600;4.994;2024-02-26T04:01:07;1.52;;;1.10;;
30505;SDS011;17292;51.600;4.994;2024-02-26T04:03:34;1.48;;;1.38;;
30505;SDS011;17292;51.600;4.994;2024-02-26T04:06:00;2.45;;;1.60;;
30505;SDS011;17292;51.600;4.994;2024-02-26T04:08:26;1.40;;;1.30;;
30505;SDS011;17292;51.600;4.994;2024-02-26T04:10:52;1.00;;;1.00;;
30505;SDS011;17292;51.600;4.994;2024-02-26T04:13:19;1.35;;;1.25;;
30505;SDS011;17292;51.600;4.994;2024-02-26T04:15:45;1.48;;;1.35;;
30505;SDS011;17292;51.600;4.994;2024-02-26T04:18:12;2.00;;;1.02;;
30505;SDS011;17292;51.600;4.994;2024-02-26T04:20:39;0.95;;;0.95;;
30505;SDS011;17292;51.600;4.994;2024-02-26T04:23:07;1.38;;;1.27;;
30505;SDS011;17292;51.600;4.994;2024-02-26T04:25:33;1.35;;;1.20;;
30505;SDS011;17292;51.600;4.994;2024-02-26T04:27:59;1.70;;;1.33;;
30505;SDS011;17292;51.600;4.994;2024-02-26T04:30:26;2.25;;;1.35;;
30505;SDS011;17292;51.600;4.994;2024-02-26T04:32:52;1.42;;;1.30;;
30505;SDS011;17292;51.600;4.994;2024-02-26T04:35:18;1.20;;;1.20;;
30505;SDS011;17292;51.600;4.994;2024-02-26T04:37:44;1.40;;;1.30;;
30505;SDS011;17292;51.600;4.994;2024-02-26T04:40:10;1.10;;;1.10;;
30505;SDS011;17292;51.600;4.994;2024-02-26T04:42:37;1.40;;;1.40;;
30505;SDS011;17292;51.600;4.994;2024-02-26T04:45:03;1.00;;;1.00;;
30505;SDS011;17292;51.600;4.994;2024-02-26T04:47:29;1.17;;;1.17;;
30505;SDS011;17292;51.600;4.994;2024-02-26T04:49:55;1.08;;;1.00;;
30505;SDS011;17292;51.600;4.994;2024-02-26T04:52:22;1.30;;;1.20;;
30505;SDS011;17292;51.600;4.994;2024-02-26T04:54:48;1.77;;;1.42;;
30505;SDS011;17292;51.600;4.994;2024-02-26T04:57:14;1.48;;;1.38;;
30505;SDS011;17292;51.600;4.994;2024-02-26T04:59:40;1.30;;;1.15;;
30505;SDS011;17292;51.600;4.994;2024-02-26T05:02:07;1.10;;;1.08;;
30505;SDS011;17292;51.600;4.994;2024-02-26T05:04:34;1.02;;;1.02;;
30505;SDS011;17292;51.600;4.994;2024-02-26T05:07:00;1.33;;;1.23;;
30505;SDS011;17292;51.600;4.994;2024-02-26T05:09:27;1.50;;;1.40;;
30505;SDS011;17292;51.600;4.994;2024-02-26T05:11:53;1.30;;;1.20;;
30505;SDS011;17292;51.600;4.994;2024-02-26T05:14:19;1.30;;;1.20;;
30505;SDS011;17292;51.600;4.994;2024-02-26T05:16:45;1.40;;;1.30;;
30505;SDS011;17292;51.600;4.994;2024-02-26T05:19:12;1.98;;;1.30;;
30505;SDS011;17292;51.600;4.994;2024-02-26T05:21:38;1.40;;;1.30;;
30505;SDS011;17292;51.600;4.994;2024-02-26T05:24:05;1.30;;;1.20;;
30505;SDS011;17292;51.600;4.994;2024-02-26T05:26:31;1.60;;;1.50;;
30505;SDS011;17292;51.600;4.994;2024-02-26T05:28:57;1.88;;;1.25;;
30505;SDS011;17292;51.600;4.994;2024-02-26T05:31:25;1.55;;;1.45;;
30505;SDS011;17292;51.600;4.994;2024-02-26T05:33:51;1.50;;;1.40;;
30505;SDS011;17292;51.600;4.994;2024-02-26T05:36:20;1.23;;;1.20;;
30505;SDS011;17292;51.600;4.994;2024-02-26T05:38:47;1.40;;;1.30;;
30505;SDS011;17292;51.600;4.994;2024-02-26T05:41:15;1.58;;;1.48;;
30505;SDS011;17292;51.600;4.994;2024-02-26T05:43:41;1.50;;;1.40;;
30505;SDS011;17292;51.600;4.994;2024-02-26T05:46:09;1.45;;;1.35;;
30505;SDS011;17292;51.600;4.994;2024-02-26T05:48:35;1.83;;;1.73;;
30505;SDS011;17292;51.600;4.994;2024-02-26T05:51:01;1.58;;;1.48;;
30505;SDS011;17292;51.600;4.994;2024-02-26T05:53:28;1.30;;;1.30;;
30505;SDS011;17292;51.600;4.994;2024-02-26T05:55:54;1.75;;;1.60;;
30505;SDS011;17292;51.600;4.994;2024-02-26T05:58:20;1.25;;;1.25;;
30505;SDS011;17292;51.600;4.994;2024-02-26T06:00:46;1.30;;;1.20;;
30505;SDS011;17292;51.600;4.994;2024-02-26T06:03:13;1.65;;;1.48;;
30505;SDS011;17292;51.600;4.994;2024-02-26T06:05:39;1.48;;;1.38;;
30505;SDS011;17292;51.600;4.994;2024-02-26T06:08:05;1.85;;;1.40;;
30505;SDS011;17292;51.600;4.994;2024-02-26T06:10:32;1.88;;;1.60;;
30505;SDS011;17292;51.600;4.994;2024-02-26T06:12:58;1.50;;;1.40;;
30505;SDS011;17292;51.600;4.994;2024-02-26T06:15:24;2.45;;;1.35;;
30505;SDS011;17292;51.600;4.994;2024-02-26T06:17:50;4.38;;;1.42;;
30505;SDS011;17292;51.600;4.994;2024-02-26T06:20:16;1.40;;;1.30;;
30505;SDS011;17292;51.600;4.994;2024-02-26T06:22:42;3.13;;;1.30;;
30505;SDS011;17292;51.600;4.994;2024-02-26T06:25:10;1.48;;;1.38;;
30505;SDS011;17292;51.600;4.994;2024-02-26T06:27:36;1.50;;;1.40;;
30505;SDS011;17292;51.600;4.994;2024-02-26T06:30:02;1.40;;;1.30;;
30505;SDS011;17292;51.600;4.994;2024-02-26T06:32:28;3.15;;;1.40;;
30505;SDS011;17292;51.600;4.994;2024-02-26T06:34:55;3.53;;;1.20;;
30505;SDS011;17292;51.600;4.994;2024-02-26T06:37:21;4.15;;;1.30;;
30505;SDS011;17292;51.600;4.994;2024-02-26T06:39:47;13.82;;;2.03;;
30505;SDS011;17292;51.600;4.994;2024-02-26T06:42:14;5.57;;;1.70;;
30505;SDS011;17292;51.600;4.994;2024-02-26T06:44:40;4.13;;;1.60;;
30505;SDS011;17292;51.600;4.994;2024-02-26T06:47:06;3.33;;;1.52;;
30505;SDS011;17292;51.600;4.994;2024-02-26T06:49:32;3.20;;;1.85;;
30505;SDS011;17292;51.600;4.994;2024-02-26T06:51:58;3.08;;;1.70;;
30505;SDS011;17292;51.600;4.994;2024-02-26T06:54:24;3.67;;;1.55;;
30505;SDS011;17292;51.600;4.994;2024-02-26T06:56:51;4.57;;;1.70;;
30505;SDS011;17292;51.600;4.994;2024-02-26T06:59:17;2.40;;;1.52;;
30505;SDS011;17292;51.600;4.994;2024-02-26T07:01:45;1.83;;;1.60;;
30505;SDS011;17292;51.600;4.994;2024-02-26T07:04:11;1.65;;;1.35;;
30505;SDS011;17292;51.600;4.994;2024-02-26T07:06:37;2.97;;;1.75;;
30505;SDS011;17292;51.600;4.994;2024-02-26T07:09:03;5.63;;;1.60;;
30505;SDS011;17292;51.600;4.994;2024-02-26T07:11:30;5.70;;;1.63;;
30505;SDS011;17292;51.600;4.994;2024-02-26T07:13:56;5.10;;;1.63;;
30505;SDS011;17292;51.600;4.994;2024-02-26T07:16:22;4.80;;;1.65;;
30505;SDS011;17292;51.600;4.994;2024-02-26T07:18:49;4.68;;;2.03;;
30505;SDS011;17292;51.600;4.994;2024-02-26T07:21:15;8.68;;;1.77;;
30505;SDS011;17292;51.600;4.994;2024-02-26T07:23:41;4.35;;;1.73;;
30505;SDS011;17292;51.600;4.994;2024-02-26T07:26:07;4.80;;;1.90;;
30505;SDS011;17292;51.600;4.994;2024-02-26T07:28:33;2.33;;;1.50;;
30505;SDS011;17292;51.600;4.994;2024-02-26T07:31:00;2.72;;;1.63;;
30505;SDS011;17292;51.600;4.994;2024-02-26T07:33:26;2.95;;;1.90;;
30505;SDS011;17292;51.600;4.994;2024-02-26T07:35:52;4.82;;;1.80;;
30505;SDS011;17292;51.600;4.994;2024-02-26T07:38:18;12.52;;;2.00;;
30505;SDS011;17292;51.600;4.994;2024-02-26T07:40:45;4.95;;;1.98;;
30505;SDS011;17292;51.600;4.994;2024-02-26T07:43:11;4.30;;;1.42;;
30505;SDS011;17292;51.600;4.994;2024-02-26T07:45:37;7.35;;;1.90;;
30505;SDS011;17292;51.600;4.994;2024-02-26T07:48:03;3.47;;;1.67;;
30505;SDS011;17292;51.600;4.994;2024-02-26T07:50:30;5.05;;;1.90;;
30505;SDS011;17292;51.600;4.994;2024-02-26T07:52:56;5.70;;;2.13;;
30505;SDS011;17292;51.600;4.994;2024-02-26T07:55:23;6.25;;;1.67;;
30505;SDS011;17292;51.600;4.994;2024-02-26T07:57:49;2.63;;;1.40;;
30505;SDS011;17292;51.600;4.994;2024-02-26T08:00:16;4.00;;;1.83;;
30505;SDS011;17292;51.600;4.994;2024-02-26T08:02:42;6.82;;;1.40;;
30505;SDS011;17292;51.600;4.994;2024-02-26T08:05:09;1.60;;;1.50;;
30505;SDS011;17292;51.600;4.994;2024-02-26T08:07:35;5.15;;;1.42;;
30505;SDS011;17292;51.600;4.994;2024-02-26T08:10:01;3.35;;;1.60;;
30505;SDS011;17292;51.600;4.994;2024-02-26T08:12:27;1.80;;;1.63;;
30505;SDS011;17292;51.600;4.994;2024-02-26T08:14:54;3.80;;;1.67;;
30505;SDS011;17292;51.600;4.994;2024-02-26T08:17:20;2.60;;;1.80;;
30505;SDS011;17292;51.600;4.994;2024-02-26T08:19:46;3.10;;;1.73;;
30505;SDS011;17292;51.600;4.994;2024-02-26T08:22:13;2.53;;;1.50;;
30505;SDS011;17292;51.600;4.994;2024-02-26T08:24:44;3.28;;;1.48;;
30505;SDS011;17292;51.600;4.994;2024-02-26T08:27:10;8.30;;;2.00;;
30505;SDS011;17292;51.600;4.994;2024-02-26T08:29:36;3.15;;;1.70;;
30505;SDS011;17292;51.600;4.994;2024-02-26T08:32:03;5.15;;;1.75;;
30505;SDS011;17292;51.600;4.994;2024-02-26T08:34:29;10.32;;;1.70;;
30505;SDS011;17292;51.600;4.994;2024-02-26T08:36:55;3.88;;;1.90;;
30505;SDS011;17292;51.600;4.994;2024-02-26T08:39:21;2.40;;;1.73;;
30505;SDS011;17292;51.600;4.994;2024-02-26T08:41:47;8.05;;;1.67;;
30505;SDS011;17292;51.600;4.994;2024-02-26T08:44:14;5.55;;;2.00;;
30505;SDS011;17292;51.600;4.994;2024-02-26T08:46:40;4.00;;;2.05;;
30505;SDS011;17292;51.600;4.994;2024-02-26T08:49:06;5.82;;;1.67;;
30505;SDS011;17292;51.600;4.994;2024-02-26T08:51:32;3.63;;;1.90;;
30505;SDS011;17292;51.600;4.994;2024-02-26T08:53:58;4.13;;;1.77;;
30505;SDS011;17292;51.600;4.994;2024-02-26T08:56:25;8.90;;;2.13;;
30505;SDS011;17292;51.600;4.994;2024-02-26T08:58:51;7.05;;;2.00;;
30505;SDS011;17292;51.600;4.994;2024-02-26T09:01:18;7.57;;;2.22;;
30505;SDS011;17292;51.600;4.994;2024-02-26T09:03:45;4.60;;;2.13;;
30505;SDS011;17292;51.600;4.994;2024-02-26T09:06:11;7.10;;;2.30;;
30505;SDS011;17292;51.600;4.994;2024-02-26T09:08:37;5.95;;;2.60;;
30505;SDS011;17292;51.600;4.994;2024-02-26T09:11:04;8.80;;;2.80;;
30505;SDS011;17292;51.600;4.994;2024-02-26T09:13:30;4.63;;;2.70;;
30505;SDS011;17292;51.600;4.994;2024-02-26T09:15:56;7.78;;;2.50;;
30505;SDS011;17292;51.600;4.994;2024-02-26T09:18:24;9.52;;;2.70;;
30505;SDS011;17292;51.600;4.994;2024-02-26T09:20:50;10.32;;;2.65;;
30505;SDS011;17292;51.600;4.994;2024-02-26T09:23:16;5.15;;;2.67;;
30505;SDS011;17292;51.600;4.994;2024-02-26T09:25:42;7.53;;;3.15;;
30505;SDS011;17292;51.600;4.994;2024-02-26T09:28:08;5.25;;;3.05;;
30505;SDS011;17292;51.600;4.994;2024-02-26T09:30:34;3.83;;;3.40;;
30505;SDS011;17292;51.600;4.994;2024-02-26T09:33:01;7.07;;;2.67;;
30505;SDS011;17292;51.600;4.994;2024-02-26T09:35:27;6.35;;;2.80;;
30505;SDS011;17292;51.600;4.994;2024-02-26T09:37:54;5.03;;;3.10;;
30505;SDS011;17292;51.600;4.994;2024-02-26T09:40:20;5.32;;;2.33;;
30505;SDS011;17292;51.600;4.994;2024-02-26T09:42:47;11.02;;;2.63;;
30505;SDS011;17292;51.600;4.994;2024-02-26T09:45:20;8.52;;;2.42;;
30505;SDS011;17292;51.600;4.994;2024-02-26T09:47:48;3.25;;;2.92;;
30505;SDS011;17292;51.600;4.994;2024-02-26T09:50:16;8.35;;;3.45;;
30505;SDS011;17292;51.600;4.994;2024-02-26T09:52:43;8.88;;;3.60;;
30505;SDS011;17292;51.600;4.994;2024-02-26T09:55:09;15.27;;;3.70;;
30505;SDS011;17292;51.600;4.994;2024-02-26T09:57:36;8.68;;;3.30;;
30505;SDS011;17292;51.600;4.994;2024-02-26T10:00:03;8.93;;;3.30;;
30505;SDS011;17292;51.600;4.994;2024-02-26T10:02:32;6.55;;;3.17;;
30505;SDS011;17292;51.600;4.994;2024-02-26T10:04:59;14.90;;;3.00;;
30505;SDS011;17292;51.600;4.994;2024-02-26T10:07:26;9.63;;;2.53;;
30505;SDS011;17292;51.600;4.994;2024-02-26T10:09:55;5.18;;;2.50;;
30505;SDS011;17292;51.600;4.994;2024-02-26T10:12:21;10.57;;;3.30;;
30505;SDS011;17292;51.600;4.994;2024-02-26T10:14:47;10.55;;;2.40;;
30505;SDS011;17292;51.600;4.994;2024-02-26T10:17:14;8.90;;;3.03;;
30505;SDS011;17292;51.600;4.994;2024-02-26T10:19:40;4.47;;;2.67;;
30505;SDS011;17292;51.600;4.994;2024-02-26T10:22:07;9.95;;;3.47;;
30505;SDS011;17292;51.600;4.994;2024-02-26T10:24:33;6.90;;;2.75;;
30505;SDS011;17292;51.600;4.994;2024-02-26T10:26:59;4.70;;;2.30;;
30505;SDS011;17292;51.600;4.994;2024-02-26T10:29:25;8.07;;;2.75;;
30505;SDS011;17292;51.600;4.994;2024-02-26T10:31:52;18.40;;;3.22;;
30505;SDS011;17292;51.600;4.994;2024-02-26T10:34:18;16.77;;;3.10;;
30505;SDS011;17292;51.600;4.994;2024-02-26T10:36:45;8.35;;;3.22;;
30505;SDS011;17292;51.600;4.994;2024-02-26T10:39:12;9.98;;;3.05;;
30505;SDS011;17292;51.600;4.994;2024-02-26T10:41:42;7.85;;;3.03;;
30505;SDS011;17292;51.600;4.994;2024-02-26T10:44:11;4.38;;;3.03;;
30505;SDS011;17292;51.600;4.994;2024-02-26T10:46:39;2.95;;;2.55;;
30505;SDS011;17292;51.600;4.994;2024-02-26T10:49:08;4.05;;;2.90;;
30505;SDS011;17292;51.600;4.994;2024-02-26T10:51:38;5.65;;;3.15;;
30505;SDS011;17292;51.600;4.994;2024-02-26T10:54:06;6.95;;;2.97;;
30505;SDS011;17292;51.600;4.994;2024-02-26T10:56:34;6.68;;;3.58;;
30505;SDS011;17292;51.600;4.994;2024-02-26T10:59:03;3.30;;;3.00;;
30505;SDS011;17292;51.600;4.994;2024-02-26T11:01:29;4.50;;;3.25;;
30505;SDS011;17292;51.600;4.994;2024-02-26T11:03:56;6.30;;;2.67;;
30505;SDS011;17292;51.600;4.994;2024-02-26T11:06:23;7.15;;;3.00;;
30505;SDS011;17292;51.600;4.994;2024-02-26T11:08:51;8.50;;;3.15;;
30505;SDS011;17292;51.600;4.994;2024-02-26T11:11:19;7.13;;;3.10;;
30505;SDS011;17292;51.600;4.994;2024-02-26T11:13:46;5.00;;;2.80;;
30505;SDS011;17292;51.600;4.994;2024-02-26T11:16:18;4.95;;;2.45;;
30505;SDS011;17292;51.600;4.994;2024-02-26T11:18:47;4.85;;;1.70;;
30505;SDS011;17292;51.600;4.994;2024-02-26T11:21:16;5.72;;;2.28;;
30505;SDS011;17292;51.600;4.994;2024-02-26T11:23:52;3.42;;;2.17;;
30505;SDS011;17292;51.600;4.994;2024-02-26T11:26:19;6.55;;;3.60;;
30505;SDS011;17292;51.600;4.994;2024-02-26T11:28:46;5.68;;;3.08;;
30505;SDS011;17292;51.600;4.994;2024-02-26T11:31:13;6.03;;;2.80;;
30505;SDS011;17292;51.600;4.994;2024-02-26T11:33:39;12.07;;;3.03;;
30505;SDS011;17292;51.600;4.994;2024-02-26T11:36:09;7.03;;;2.63;;
30505;SDS011;17292;51.600;4.994;2024-02-26T11:38:36;6.18;;;3.30;;
30505;SDS011;17292;51.600;4.994;2024-02-26T11:41:02;4.97;;;2.55;;
30505;SDS011;17292;51.600;4.994;2024-02-26T11:46:29;5.93;;;2.80;;
30505;SDS011;17292;51.600;4.994;2024-02-26T11:49:02;5.75;;;3.00;;
30505;SDS011;17292;51.600;4.994;2024-02-26T11:51:32;6.55;;;2.88;;
30505;SDS011;17292;51.600;4.994;2024-02-26T11:53:59;9.30;;;3.03;;
30505;SDS011;17292;51.600;4.994;2024-02-26T11:56:25;10.35;;;2.80;;
30505;SDS011;17292;51.600;4.994;2024-02-26T11:59:03;8.75;;;2.70;;
30505;SDS011;17292;51.600;4.994;2024-02-26T12:01:39;8.95;;;2.72;;
30505;SDS011;17292;51.600;4.994;2024-02-26T12:06:50;12.90;;;2.95;;
30505;SDS011;17292;51.600;4.994;2024-02-26T12:09:32;8.10;;;2.95;;
30505;SDS011;17292;51.600;4.994;2024-02-26T12:11:59;8.75;;;3.33;;
30505;SDS011;17292;51.600;4.994;2024-02-26T12:14:25;10.85;;;3.10;;
30505;SDS011;17292;51.600;4.994;2024-02-26T12:16:52;10.10;;;2.80;;
30505;SDS011;17292;51.600;4.994;2024-02-26T12:19:18;8.20;;;2.88;;
30505;SDS011;17292;51.600;4.994;2024-02-26T12:21:45;11.60;;;3.15;;
30505;SDS011;17292;51.600;4.994;2024-02-26T12:24:16;25.90;;;4.85;;
30505;SDS011;17292;51.600;4.994;2024-02-26T12:26:45;18.83;;;3.42;;
30505;SDS011;17292;51.600;4.994;2024-02-26T12:29:11;23.23;;;3.83;;
30505;SDS011;17292;51.600;4.994;2024-02-26T12:31:38;10.90;;;3.00;;
30505;SDS011;17292;51.600;4.994;2024-02-26T12:34:05;26.45;;;4.28;;
30505;SDS011;17292;51.600;4.994;2024-02-26T12:36:33;22.63;;;4.00;;
30505;SDS011;17292;51.600;4.994;2024-02-26T12:39:00;35.50;;;5.35;;
30505;SDS011;17292;51.600;4.994;2024-02-26T12:41:27;16.25;;;3.47;;
30505;SDS011;17292;51.600;4.994;2024-02-26T12:43:55;25.95;;;3.50;;
30505;SDS011;17292;51.600;4.994;2024-02-26T12:46:21;28.02;;;3.85;;
30505;SDS011;17292;51.600;4.994;2024-02-26T12:48:48;32.65;;;3.33;;
30505;SDS011;17292;51.600;4.994;2024-02-26T12:51:15;22.58;;;3.53;;
30505;SDS011;17292;51.600;4.994;2024-02-26T12:53:42;24.25;;;3.58;;
30505;SDS011;17292;51.600;4.994;2024-02-26T12:56:09;27.02;;;3.17;;
30505;SDS011;17292;51.600;4.994;2024-02-26T12:58:36;17.05;;;3.30;;
30505;SDS011;17292;51.600;4.994;2024-02-26T13:01:04;22.40;;;3.00;;
30505;SDS011;17292;51.600;4.994;2024-02-26T13:03:30;14.35;;;3.67;;
30505;SDS011;17292;51.600;4.994;2024-02-26T13:05:57;12.05;;;3.63;;
30505;SDS011;17292;51.600;4.994;2024-02-26T13:08:23;17.27;;;3.42;;
30505;SDS011;17292;51.600;4.994;2024-02-26T13:10:50;10.55;;;3.03;;
30505;SDS011;17292;51.600;4.994;2024-02-26T13:13:17;21.02;;;3.15;;
30505;SDS011;17292;51.600;4.994;2024-02-26T13:15:45;8.60;;;2.40;;
30505;SDS011;17292;51.600;4.994;2024-02-26T13:18:12;6.20;;;2.20;;
30505;SDS011;17292;51.600;4.994;2024-02-26T13:20:39;12.40;;;2.70;;
30505;SDS011;17292;51.600;4.994;2024-02-26T13:23:06;8.38;;;3.05;;
30505;SDS011;17292;51.600;4.994;2024-02-26T13:25:33;18.42;;;3.65;;
30505;SDS011;17292;51.600;4.994;2024-02-26T13:28:16;14.98;;;3.00;;
30505;SDS011;17292;51.600;4.994;2024-02-26T13:33:11;18.05;;;2.67;;
30505;SDS011;17292;51.600;4.994;2024-02-26T13:35:38;14.10;;;3.15;;
30505;SDS011;17292;51.600;4.994;2024-02-26T13:38:07;26.85;;;3.67;;
30505;SDS011;17292;51.600;4.994;2024-02-26T13:40:34;16.27;;;3.42;;
30505;SDS011;17292;51.600;4.994;2024-02-26T13:43:00;20.70;;;3.17;;
30505;SDS011;17292;51.600;4.994;2024-02-26T13:45:27;13.68;;;3.00;;
30505;SDS011;17292;51.600;4.994;2024-02-26T13:47:53;14.38;;;3.10;;
30505;SDS011;17292;51.600;4.994;2024-02-26T13:50:19;14.82;;;2.97;;
30505;SDS011;17292;51.600;4.994;2024-02-26T13:52:48;10.07;;;3.20;;
30505;SDS011;17292;51.600;4.994;2024-02-26T13:55:18;18.73;;;3.60;;
30505;SDS011;17292;51.600;4.994;2024-02-26T13:57:45;18.13;;;3.78;;
30505;SDS011;17292;51.600;4.994;2024-02-26T14:00:12;30.45;;;3.00;;
30505;SDS011;17292;51.600;4.994;2024-02-26T14:02:38;18.77;;;3.88;;
30505;SDS011;17292;51.600;4.994;2024-02-26T14:05:04;13.38;;;2.65;;
30505;SDS011;17292;51.600;4.994;2024-02-26T14:07:31;10.35;;;2.75;;
30505;SDS011;17292;51.600;4.994;2024-02-26T14:09:57;12.73;;;2.65;;
30505;SDS011;17292;51.600;4.994;2024-02-26T14:12:24;10.88;;;2.55;;
30505;SDS011;17292;51.600;4.994;2024-02-26T14:14:50;12.15;;;3.15;;
30505;SDS011;17292;51.600;4.994;2024-02-26T14:17:19;15.15;;;3.47;;
30505;SDS011;17292;51.600;4.994;2024-02-26T14:19:45;24.25;;;3.20;;
30505;SDS011;17292;51.600;4.994;2024-02-26T14:22:13;31.30;;;3.83;;
30505;SDS011;17292;51.600;4.994;2024-02-26T14:24:41;16.92;;;3.38;;
30505;SDS011;17292;51.600;4.994;2024-02-26T14:27:10;16.20;;;2.92;;
30505;SDS011;17292;51.600;4.994;2024-02-26T14:29:43;14.45;;;3.08;;
30505;SDS011;17292;51.600;4.994;2024-02-26T14:32:10;22.35;;;3.00;;
30505;SDS011;17292;51.600;4.994;2024-02-26T14:34:36;13.02;;;2.85;;
30505;SDS011;17292;51.600;4.994;2024-02-26T14:37:02;21.17;;;3.33;;
30505;SDS011;17292;51.600;4.994;2024-02-26T14:39:29;21.67;;;4.25;;
30505;SDS011;17292;51.600;4.994;2024-02-26T14:41:57;23.08;;;2.80;;
30505;SDS011;17292;51.600;4.994;2024-02-26T14:44:23;13.63;;;3.00;;
30505;SDS011;17292;51.600;4.994;2024-02-26T14:46:49;19.10;;;2.97;;
30505;SDS011;17292;51.600;4.994;2024-02-26T14:49:16;18.35;;;3.55;;
30505;SDS011;17292;51.600;4.994;2024-02-26T14:51:43;13.15;;;2.78;;